Time;durP1;ratioP1;P1;durP2;ratioP2;P2;SDS_P1;SDS_P2;PMS_P1;PMS_P2;Temp;Humidity;BMP_temperature;BMP_pressure;BME280_temperature;BME280_humidity;BME280_pressure;Samples;Min_cycle;Max_cycle;Signal;HPM_P1;HPM_P2
2023/06/04 00:00:17;;;;;;;6.75;2.08;;;;;;;13.23;100.00;101949.69;5268006;28;20032;-68
2023/06/04 00:02:48;;;;;;;4.90;1.77;;;;;;;13.22;100.00;101953.34;5273819;28;20029;-68
2023/06/04 00:05:21;;;;;;;5.30;2.17;;;;;;;13.18;100.00;101958.06;5267370;28;20036;-68
2023/06/04 00:07:52;;;;;;;5.43;2.10;;;;;;;13.19;100.00;101950.88;5268454;28;20207;-68
2023/06/04 00:10:24;;;;;;;4.07;2.30;;;;;;;13.14;100.00;101943.16;5268769;28;20112;-67
2023/06/04 00:12:55;;;;;;;6.10;2.20;;;;;;;13.12;100.00;101947.78;5268082;28;21444;-68
2023/06/04 00:15:27;;;;;;;6.45;2.40;;;;;;;13.08;100.00;101941.75;5274368;28;20055;-68
2023/06/04 00:17:58;;;;;;;6.70;2.40;;;;;;;13.06;100.00;101938.34;5267467;28;20028;-68
2023/06/04 00:20:29;;;;;;;6.22;2.00;;;;;;;13.11;100.00;101944.22;5267047;28;20103;-68
2023/06/04 00:23:01;;;;;;;5.32;2.20;;;;;;;13.03;100.00;101935.84;5269238;28;20033;-68
2023/06/04 00:25:32;;;;;;;4.95;1.95;;;;;;;13.06;100.00;101942.81;5267670;28;20495;-68
2023/06/04 00:28:03;;;;;;;5.93;2.00;;;;;;;13.03;100.00;101941.22;5268994;28;20024;-68
2023/06/04 00:30:35;;;;;;;6.55;2.22;;;;;;;12.98;100.00;101946.03;5268785;28;20036;-68
2023/06/04 00:33:06;;;;;;;5.13;2.20;;;;;;;12.95;100.00;101949.78;5265962;28;20044;-68
2023/06/04 00:35:38;;;;;;;6.32;2.08;;;;;;;12.93;100.00;101943.69;5268339;28;20075;-68
2023/06/04 00:38:10;;;;;;;4.57;2.10;;;;;;;12.91;100.00;101944.75;5266357;28;20032;-68
2023/06/04 00:40:41;;;;;;;5.15;2.47;;;;;;;12.93;100.00;101948.19;5267741;28;20076;-68
2023/06/04 00:43:13;;;;;;;9.02;2.10;;;;;;;12.88;100.00;101943.13;5267821;28;20033;-68
2023/06/04 00:45:45;;;;;;;6.60;2.40;;;;;;;12.86;100.00;101941.53;5263074;28;20550;-68
2023/06/04 00:48:16;;;;;;;6.18;2.42;;;;;;;12.83;100.00;101939.03;5269398;28;20039;-68
2023/06/04 00:50:48;;;;;;;6.70;2.03;;;;;;;12.86;100.00;101941.53;5265203;28;20032;-68
2023/06/04 00:53:21;;;;;;;3.97;1.90;;;;;;;12.77;100.00;101935.00;5269410;28;20119;-68
2023/06/04 00:55:52;;;;;;;4.25;1.80;;;;;;;12.76;100.00;101933.25;5266618;28;20021;-68
2023/06/04 00:58:24;;;;;;;4.50;1.80;;;;;;;12.75;100.00;101929.75;5266273;28;20051;-68
2023/06/04 01:00:59;;;;;;;5.80;2.17;;;;;;;12.69;100.00;101931.97;5266129;28;20127;-68
2023/06/04 01:03:34;;;;;;;4.63;1.63;;;;;;;12.71;100.00;101938.94;5270770;28;20040;-68
2023/06/04 01:06:25;;;;;;;5.15;2.13;;;;;;;12.77;100.00;101936.78;5265854;28;20048;-67
2023/06/04 01:08:58;;;;;;;5.70;1.80;;;;;;;12.65;100.00;101943.84;5272966;28;20070;-68
2023/06/04 01:11:37;;;;;;;4.10;2.05;;;;;;;12.62;100.00;101944.91;5270665;28;20021;-68
2023/06/04 01:14:09;;;;;;;6.38;2.03;;;;;;;12.59;100.00;101944.25;5264282;28;20064;-68
2023/06/04 01:17:01;;;;;;;5.13;1.98;;;;;;;12.60;100.00;101948.66;5263893;28;20033;-68
2023/06/04 01:19:42;;;;;;;3.55;1.65;;;;;;;12.55;100.00;101952.50;5269371;28;20032;-68
2023/06/04 01:22:32;;;;;;;7.32;1.90;;;;;;;12.55;100.00;101951.66;5270398;28;20119;-68
2023/06/04 01:25:09;;;;;;;4.70;1.95;;;;;;;12.46;100.00;101944.22;5266923;28;20059;-68
2023/06/04 01:27:41;;;;;;;5.95;1.85;;;;;;;12.47;100.00;101946.81;5268274;28;20457;-68
2023/06/04 01:30:13;;;;;;;4.50;2.13;;;;;;;12.43;100.00;101945.28;5268063;28;20040;-68
2023/06/04 01:32:46;;;;;;;5.20;2.08;;;;;;;12.44;100.00;101946.16;5265599;28;20390;-68
2023/06/04 01:35:17;;;;;;;4.50;1.90;;;;;;;12.39;100.00;101942.91;5268430;28;20166;-68
2023/06/04 01:37:49;;;;;;;4.10;1.70;;;;;;;12.37;100.00;101953.75;5265730;28;20126;-68
2023/06/04 01:40:22;;;;;;;5.30;1.60;;;;;;;12.29;100.00;101951.56;5268046;28;20024;-68
2023/06/04 01:42:54;;;;;;;4.53;2.10;;;;;;;12.28;100.00;101941.81;5264241;28;20044;-68
2023/06/04 01:45:27;;;;;;;4.63;2.08;;;;;;;12.24;100.00;101948.34;5268250;28;20028;-68
2023/06/04 01:48:01;;;;;;;5.15;2.03;;;;;;;12.23;100.00;101941.25;5265563;28;20024;-68
2023/06/04 01:50:32;;;;;;;4.38;1.90;;;;;;;12.21;100.00;101940.50;5266347;28;20028;-68
2023/06/04 01:53:04;;;;;;;5.50;2.05;;;;;;;12.16;100.00;101942.63;5268985;28;20023;-68
2023/06/04 01:55:37;;;;;;;4.75;1.90;;;;;;;12.12;100.00;101938.44;5266404;28;20089;-68
2023/06/04 01:58:09;;;;;;;4.35;1.85;;;;;;;12.11;100.00;101942.91;5264070;28;20078;-68
2023/06/04 02:00:40;;;;;;;5.90;2.55;;;;;;;12.12;100.00;101949.16;5277822;28;20487;-68
2023/06/04 02:03:12;;;;;;;4.90;1.73;;;;;;;12.04;100.00;101944.31;5267151;28;20119;-68
2023/06/04 02:05:45;;;;;;;6.35;1.88;;;;;;;12.07;100.00;101946.75;5267262;28;20083;-68
2023/06/04 02:08:20;;;;;;;4.83;2.03;;;;;;;12.03;100.00;101947.06;5266043;28;20032;-68
2023/06/04 02:10:51;;;;;;;5.00;2.10;;;;;;;11.98;100.00;101944.69;5269535;28;20867;-68
2023/06/04 02:13:23;;;;;;;4.35;2.10;;;;;;;11.96;100.00;101944.78;5269339;28;20477;-68
2023/06/04 02:15:54;;;;;;;4.32;1.88;;;;;;;11.88;100.00;101939.03;5266170;28;20510;-68
2023/06/04 02:18:26;;;;;;;6.15;2.00;;;;;;;11.95;100.00;101937.72;5266900;28;20513;-68
2023/06/04 02:20:58;;;;;;;7.22;2.20;;;;;;;11.85;100.00;101936.56;5269716;28;20039;-67
2023/06/04 02:23:29;;;;;;;3.30;1.55;;;;;;;11.85;100.00;101936.56;5267790;28;20119;-68
2023/06/04 02:26:01;;;;;;;4.07;2.20;;;;;;;11.79;100.00;101931.59;5263819;28;20326;-68
2023/06/04 02:28:32;;;;;;;5.05;1.90;;;;;;;11.73;100.00;101930.16;5268091;28;20027;-68
2023/06/04 02:31:04;;;;;;;5.03;2.00;;;;;;;11.80;100.00;101941.34;5269800;28;20024;-68
2023/06/04 02:33:35;;;;;;;3.67;2.00;;;;;;;11.73;100.00;101940.88;5266761;28;20168;-70
2023/06/04 02:36:08;;;;;;;6.18;1.92;;;;;;;11.75;100.00;101941.66;5272540;28;20492;-68
2023/06/04 02:38:40;;;;;;;4.82;2.03;;;;;;;11.77;100.00;101942.41;5270678;28;20081;-68
2023/06/04 02:41:11;;;;;;;5.72;2.25;;;;;;;11.65;100.00;101947.69;5269682;28;20032;-68
2023/06/04 02:43:42;;;;;;;7.43;2.08;;;;;;;11.61;100.00;101949.69;5273469;28;20046;-68
2023/06/04 02:46:14;;;;;;;5.78;2.10;;;;;;;11.58;100.00;101944.50;5261466;28;20028;-68
2023/06/04 02:48:46;;;;;;;5.40;2.08;;;;;;;11.60;100.00;101941.75;5267315;28;20029;-68
2023/06/04 02:51:17;;;;;;;3.83;2.03;;;;;;;11.53;100.00;101943.97;5267551;28;20436;-68
2023/06/04 02:53:48;;;;;;;6.05;2.00;;;;;;;11.49;100.00;101947.78;5267945;28;20078;-68
2023/06/04 02:56:20;;;;;;;5.85;2.33;;;;;;;11.42;100.00;101951.78;5265172;28;20113;-68
2023/06/04 02:58:55;;;;;;;4.72;1.85;;;;;;;11.36;100.00;101945.03;5269422;28;20462;-68
2023/06/04 03:01:27;;;;;;;4.85;2.15;;;;;;;11.30;100.00;101948.06;5265732;28;20087;-68
2023/06/04 03:03:58;;;;;;;4.47;2.40;;;;;;;11.36;100.00;101951.22;5270213;28;20021;-68
2023/06/04 03:06:32;;;;;;;4.32;2.10;;;;;;;11.27;100.00;101943.75;5269053;28;20090;-68
2023/06/04 03:09:04;;;;;;;5.97;2.20;;;;;;;11.19;100.00;101944.22;5267630;28;20085;-68
2023/06/04 03:11:35;;;;;;;6.30;2.20;;;;;;;11.19;100.00;101949.56;5269391;28;20021;-67
2023/06/04 03:14:06;;;;;;;4.60;2.00;;;;;;;11.14;100.00;101937.47;5270022;28;20995;-68
2023/06/04 03:16:39;;;;;;;5.45;2.13;;;;;;;11.10;100.00;101943.94;5268600;28;20056;-67
2023/06/04 03:19:11;;;;;;;4.28;2.10;;;;;;;11.08;100.00;101943.19;5267278;28;20977;-68
2023/06/04 03:21:44;;;;;;;5.35;2.58;;;;;;;11.02;100.00;101936.41;5269338;28;20032;-68
2023/06/04 03:24:16;;;;;;;4.77;1.93;;;;;;;10.98;100.00;101937.53;5272682;28;20044;-67
2023/06/04 03:26:47;;;;;;;5.68;2.17;;;;;;;10.94;100.00;101930.69;5271713;28;20279;-68
2023/06/04 03:29:18;;;;;;;5.20;2.08;;;;;;;10.91;100.00;101937.06;5271405;28;20020;-68
2023/06/04 03:31:50;;;;;;;5.85;2.30;;;;;;;10.90;100.00;101939.81;5270509;28;20075;-68
2023/06/04 03:34:24;;;;;;;7.00;2.50;;;;;;;10.91;100.00;101934.41;5268792;28;20025;-68
2023/06/04 03:36:56;;;;;;;7.32;2.20;;;;;;;10.91;100.00;101936.19;5269447;28;20029;-68
2023/06/04 03:39:27;;;;;;;4.57;2.30;;;;;;;10.99;100.00;101934.78;5268460;28;20033;-68
2023/06/04 03:41:59;;;;;;;5.60;2.60;;;;;;;10.97;100.00;101944.69;5270629;28;20036;-68
2023/06/04 03:44:30;;;;;;;4.82;2.10;;;;;;;11.01;100.00;101941.81;5267933;28;20032;-67
2023/06/04 03:47:02;;;;;;;4.90;2.35;;;;;;;10.90;100.00;101945.16;5266981;28;20117;-68
2023/06/04 03:49:33;;;;;;;4.88;2.15;;;;;;;10.90;100.00;101954.03;5269881;28;20377;-67
2023/06/04 03:52:05;;;;;;;6.57;2.40;;;;;;;10.88;100.00;101949.75;5269978;28;21444;-68
2023/06/04 03:54:36;;;;;;;6.82;2.42;;;;;;;10.94;100.00;101952.03;5270764;28;20110;-68
2023/06/04 03:57:07;;;;;;;4.93;2.33;;;;;;;10.87;100.00;101950.69;5269829;28;20035;-67
2023/06/04 03:59:39;;;;;;;4.78;2.20;;;;;;;10.98;100.00;101942.88;5268292;28;20028;-68
2023/06/04 04:02:10;;;;;;;4.72;2.40;;;;;;;10.95;100.00;101945.75;5266776;28;20039;-68
2023/06/04 04:04:42;;;;;;;4.05;2.17;;;;;;;10.88;100.00;101947.91;5269766;28;20064;-68
2023/06/04 04:07:13;;;;;;;7.55;2.60;;;;;;;10.84;100.00;101953.56;5264573;28;20037;-68
2023/06/04 04:09:45;;;;;;;6.47;2.70;;;;;;;10.87;100.00;101950.69;5271275;28;20028;-68
2023/06/04 04:12:17;;;;;;;5.72;2.60;;;;;;;10.82;100.00;101948.28;5271392;28;20120;-67
2023/06/04 04:14:48;;;;;;;5.20;2.22;;;;;;;10.84;100.00;101940.19;5266762;28;20125;-67
2023/06/04 04:17:19;;;;;;;5.63;2.50;;;;;;;10.83;100.00;101950.00;5265853;28;20056;-67
2023/06/04 04:19:51;;;;;;;4.90;2.33;;;;;;;10.80;100.00;101947.53;5269138;28;20044;-68
2023/06/04 04:22:22;;;;;;;5.93;2.42;;;;;;;10.89;100.00;101951.44;5269567;28;20028;-67
2023/06/04 04:24:53;;;;;;;6.95;2.25;;;;;;;10.82;100.00;101950.13;5270687;28;20020;-67
2023/06/04 04:27:25;;;;;;;5.50;2.70;;;;;;;10.82;100.00;101950.13;5268602;28;20028;-68
2023/06/04 04:29:59;;;;;;;5.38;2.13;;;;;;;10.84;100.00;101946.41;5270261;28;20067;-68
2023/06/04 04:32:31;;;;;;;6.47;2.60;;;;;;;10.85;100.00;101942.75;5265611;28;20029;-67
2023/06/04 04:35:03;;;;;;;4.97;2.20;;;;;;;10.87;100.00;101956.00;5269626;28;20498;-68
2023/06/04 04:37:38;;;;;;;6.47;2.13;;;;;;;10.92;100.00;101953.94;5269264;28;20501;-67
2023/06/04 04:40:10;;;;;;;5.90;2.45;;;;;;;10.88;100.00;101947.91;5267708;28;20115;-67
2023/06/04 04:42:41;;;;;;;5.40;2.15;;;;;;;10.89;100.00;101952.31;5267812;28;20027;-68
2023/06/04 04:45:13;;;;;;;7.30;2.45;;;;;;;10.90;100.00;101953.19;5269366;28;20028;-68
2023/06/04 04:47:44;;;;;;;6.32;2.35;;;;;;;10.92;100.00;101954.78;5273947;28;20806;-68
2023/06/04 04:50:16;;;;;;;6.78;2.70;;;;;;;10.95;100.00;101962.63;5270345;28;20039;-68
2023/06/04 04:52:47;;;;;;;5.13;2.50;;;;;;;11.00;100.00;101957.00;5274539;28;20029;-68
2023/06/04 04:55:18;;;;;;;5.68;3.05;;;;;;;11.11;100.00;101970.56;5272860;28;20028;-67
2023/06/04 04:57:50;;;;;;;4.07;2.40;;;;;;;11.12;100.00;101961.63;5269758;28;20516;-67
2023/06/04 05:00:21;;;;;;;5.25;2.53;;;;;;;11.06;100.00;101959.28;5269702;28;20312;-68
2023/06/04 05:02:53;;;;;;;7.75;2.47;;;;;;;11.08;100.00;101954.72;5271986;28;20032;-67
2023/06/04 05:05:24;;;;;;;5.22;3.10;;;;;;;11.12;100.00;101956.28;5263480;28;20119;-67
2023/06/04 05:07:55;;;;;;;8.63;3.00;;;;;;;11.17;100.00;101958.66;5265385;28;20071;-67
2023/06/04 05:10:27;;;;;;;5.05;2.70;;;;;;;11.17;100.00;101964.84;5267786;28;20535;-68
2023/06/04 05:13:00;;;;;;;4.65;2.53;;;;;;;11.18;100.00;101963.91;5261888;28;20031;-67
2023/06/04 05:15:32;;;;;;;6.65;2.47;;;;;;;11.22;100.00;101969.91;5261971;28;20029;-68
2023/06/04 05:18:03;;;;;;;4.97;2.35;;;;;;;11.33;100.00;101969.25;5263922;28;20082;-67
2023/06/04 05:20:37;;;;;;;6.90;2.50;;;;;;;11.28;100.00;101963.34;5271198;28;20103;-67
2023/06/04 05:23:08;;;;;;;6.75;2.65;;;;;;;11.30;100.00;101972.13;5274230;28;20040;-67
2023/06/04 05:25:40;;;;;;;7.13;3.45;;;;;;;11.32;100.00;101972.88;5271622;28;20060;-67
2023/06/04 05:28:12;;;;;;;4.75;2.72;;;;;;;11.43;100.00;101969.53;5274366;28;20033;-67
2023/06/04 05:30:44;;;;;;;7.88;3.13;;;;;;;11.44;100.00;101974.78;5273623;28;20111;-67
2023/06/04 05:33:18;;;;;;;5.93;2.30;;;;;;;11.51;100.00;101972.59;5269773;28;21284;-67
2023/06/04 05:35:49;;;;;;;5.35;2.58;;;;;;;11.50;100.00;101971.72;5271422;28;20035;-67
2023/06/04 05:38:25;;;;;;;6.53;2.80;;;;;;;11.56;100.00;101966.03;5272356;28;20036;-68
2023/06/04 05:40:57;;;;;;;7.15;2.35;;;;;;;11.57;100.00;101967.72;5272045;28;20032;-67
2023/06/04 05:43:28;;;;;;;6.38;2.47;;;;;;;11.64;100.00;101967.31;5275958;28;20027;-68
2023/06/04 05:45:59;;;;;;;5.68;2.40;;;;;;;11.70;100.00;101958.94;5267834;28;20021;-68
2023/06/04 05:48:31;;;;;;;5.63;2.60;;;;;;;11.72;100.00;101965.06;5268281;28;20307;-67
2023/06/04 05:51:02;;;;;;;6.57;2.85;;;;;;;11.73;100.00;101959.59;5269320;28;20055;-67
2023/06/04 05:53:33;;;;;;;5.28;2.45;;;;;;;11.85;100.00;101971.34;5267022;28;20420;-68
2023/06/04 05:56:05;;;;;;;5.72;2.60;;;;;;;11.83;100.00;101969.69;5264208;28;20127;-67
2023/06/04 05:58:36;;;;;;;6.25;2.60;;;;;;;11.90;100.00;101976.41;5268739;28;20419;-68
2023/06/04 06:01:08;;;;;;;5.70;3.05;;;;;;;11.99;100.00;101969.63;5264809;28;20032;-68
2023/06/04 06:03:39;;;;;;;4.43;2.35;;;;;;;12.02;100.00;101972.09;5265123;28;20376;-68
2023/06/04 06:06:12;;;;;;;5.80;2.58;;;;;;;12.06;100.00;101968.25;5265459;28;20495;-68
2023/06/04 06:08:44;;;;;;;4.83;2.27;;;;;;;12.14;100.00;101972.16;5264590;28;20043;-68
2023/06/04 06:11:16;;;;;;;5.65;2.65;;;;;;;12.15;100.00;101973.84;5263332;28;20032;-68
2023/06/04 06:13:47;;;;;;;6.15;2.70;;;;;;;12.23;100.00;101968.00;5262994;28;20028;-68
2023/06/04 06:16:18;;;;;;;4.60;2.28;;;;;;;12.43;100.00;101977.41;5259053;28;20037;-67
2023/06/04 06:18:50;;;;;;;5.03;2.40;;;;;;;12.46;100.00;101968.31;5261892;28;20024;-68
2023/06/04 06:21:21;;;;;;;6.90;2.78;;;;;;;12.58;100.00;101980.91;5261098;28;20037;-67
2023/06/04 06:23:54;;;;;;;6.13;2.85;;;;;;;12.64;100.00;101980.47;5263801;28;20033;-68
2023/06/04 06:26:25;;;;;;;5.20;2.40;;;;;;;12.71;100.00;101981.78;5265303;28;20029;-67
2023/06/04 06:28:57;;;;;;;6.05;2.70;;;;;;;12.84;100.00;101972.91;5259310;28;20040;-68
2023/06/04 06:31:28;;;;;;;5.75;2.60;;;;;;;13.00;100.00;101989.66;5260142;28;20052;-68
2023/06/04 06:34:00;;;;;;;4.65;2.45;;;;;;;13.07;100.00;101988.25;5260594;28;20028;-68
2023/06/04 06:36:32;;;;;;;6.65;2.78;;;;;;;13.19;100.00;101991.06;5263096;28;20036;-68
2023/06/04 06:39:04;;;;;;;4.85;2.33;;;;;;;13.29;100.00;101990.31;5268543;28;20410;-68
2023/06/04 06:41:35;;;;;;;7.60;2.58;;;;;;;13.34;100.00;101988.19;5268482;28;20097;-68
2023/06/04 06:44:06;;;;;;;6.05;2.47;;;;;;;13.51;100.00;101996.88;5268443;28;20032;-68
2023/06/04 06:46:38;;;;;;;4.53;2.28;;;;;;;13.69;100.00;101994.72;5268499;28;20459;-68
2023/06/04 06:49:09;;;;;;;7.30;2.60;;;;;;;13.65;100.00;101991.44;5267027;28;20078;-68
2023/06/04 06:51:41;;;;;;;9.57;2.60;;;;;;;13.83;100.00;101993.75;5267236;28;20036;-68
2023/06/04 06:54:15;;;;;;;4.18;2.15;;;;;;;13.86;100.00;101997.03;5270845;28;20599;-68
2023/06/04 06:56:50;;;;;;;4.25;2.42;;;;;;;13.91;100.00;101988.69;5268699;28;20028;-68
2023/06/04 06:59:22;;;;;;;5.10;2.40;;;;;;;14.03;100.00;101997.66;5265528;28;20036;-68
2023/06/04 07:01:53;;;;;;;6.00;2.60;;;;;;;14.09;100.00;102002.56;5265786;28;20051;-68
2023/06/04 07:04:25;;;;;;;6.07;2.50;;;;;;;14.25;100.00;102005.00;5270360;28;20458;-67
2023/06/04 07:06:57;;;;;;;4.40;2.45;;;;;;;14.34;100.00;102000.78;5272458;28;20093;-69
2023/06/04 07:09:28;;;;;;;4.47;2.20;;;;;;;14.41;100.00;102007.41;5268368;28;20368;-68
2023/06/04 07:12:00;;;;;;;5.70;2.40;;;;;;;14.59;100.00;102008.75;5263664;28;20032;-68
2023/06/04 07:14:31;;;;;;;6.05;2.75;;;;;;;14.70;100.00;102013.31;5266795;28;20060;-68
2023/06/04 07:17:03;;;;;;;6.40;2.72;;;;;;;14.82;100.00;102014.22;5269592;28;20036;-68
2023/06/04 07:19:35;;;;;;;4.40;2.30;;;;;;;14.93;100.00;102008.88;5264954;28;20032;-68
2023/06/04 07:22:06;;;;;;;5.60;2.72;;;;;;;15.03;100.00;102014.41;5263997;28;20123;-68
2023/06/04 07:24:38;;;;;;;5.50;2.70;;;;;;;15.16;100.00;102007.13;5264493;28;20027;-68
2023/06/04 07:27:11;;;;;;;4.13;2.33;;;;;;;15.19;100.00;102008.72;5272164;28;20187;-68
2023/06/04 07:29:44;;;;;;;4.38;2.38;;;;;;;15.34;100.00;102012.03;5270307;28;20020;-68
2023/06/04 07:32:15;;;;;;;5.07;2.47;;;;;;;15.52;100.00;102004.38;5270118;28;20451;-68
2023/06/04 07:34:47;;;;;;;6.07;2.45;;;;;;;15.47;100.00;101997.53;5270514;28;20020;-69
2023/06/04 07:37:18;;;;;;;5.93;2.42;;;;;;;15.59;100.00;102003.75;5267960;28;20032;-68
2023/06/04 07:39:50;;;;;;;5.47;2.58;;;;;;;15.85;100.00;102008.91;5267901;28;20068;-69
2023/06/04 07:42:21;;;;;;;6.00;2.80;;;;;;;15.84;100.00;102008.06;5269766;28;20028;-68
2023/06/04 07:44:52;;;;;;;5.53;2.53;;;;;;;16.07;100.00;102016.13;5266999;28;20095;-68
2023/06/04 07:47:24;;;;;;;4.35;2.47;;;;;;;16.13;100.00;102009.38;5283814;28;20427;-69
2023/06/04 07:49:55;;;;;;;5.63;2.65;;;;;;;16.24;100.00;102009.34;5268930;28;20036;-68
2023/06/04 07:52:27;;;;;;;4.90;2.47;;;;;;;16.42;100.00;102012.38;5269481;28;20024;-68
2023/06/04 07:54:59;;;;;;;4.15;2.50;;;;;;;16.54;100.00;102018.56;5270323;28;20024;-69
2023/06/04 07:57:31;;;;;;;5.93;2.33;;;;;;;16.66;100.00;102012.16;5272315;28;20027;-69
2023/06/04 08:00:07;;;;;;;4.97;2.60;;;;;;;16.93;100.00;102009.03;5263263;28;20033;-69
2023/06/04 08:02:38;;;;;;;5.85;2.30;;;;;;;16.97;100.00;102010.47;5266721;28;20028;-68
2023/06/04 08:05:10;;;;;;;4.35;2.30;;;;;;;16.97;100.00;102010.47;5270508;28;20044;-69
2023/06/04 08:07:41;;;;;;;6.07;2.60;;;;;;;17.02;100.00;102013.59;5267455;28;20367;-69
2023/06/04 08:10:13;;;;;;;5.45;2.38;;;;;;;17.25;94.09;102013.47;5269397;28;20475;-69
2023/06/04 08:12:44;;;;;;;5.75;2.10;;;;;;;17.36;91.08;102009.88;5266965;28;20028;-68
2023/06/04 08:15:16;;;;;;;5.10;2.00;;;;;;;17.44;91.11;102010.88;5272086;28;20024;-69
2023/06/04 08:17:47;;;;;;;5.88;2.15;;;;;;;17.44;93.15;102010.03;5265688;28;20051;-69
2023/06/04 08:20:19;;;;;;;4.28;2.22;;;;;;;17.67;90.56;102013.41;5269255;28;20058;-69
2023/06/04 08:22:50;;;;;;;5.13;2.50;;;;;;;17.68;87.44;102015.16;5267743;28;20028;-69
2023/06/04 08:25:21;;;;;;;4.40;2.40;;;;;;;17.86;87.96;102009.13;5268098;28;20028;-69
2023/06/04 08:27:53;;;;;;;3.25;2.00;;;;;;;17.89;87.84;102011.53;5266980;28;20024;-69
2023/06/04 08:30:25;;;;;;;4.85;2.30;;;;;;;18.10;87.05;102014.16;5270006;28;20028;-69
2023/06/04 08:32:56;;;;;;;4.65;2.30;;;;;;;18.31;86.76;102016.78;5268466;28;20024;-69
2023/06/04 08:35:28;;;;;;;5.22;2.40;;;;;;;18.36;89.54;102009.13;5267813;28;20035;-69
2023/06/04 08:37:59;;;;;;;3.70;1.90;;;;;;;18.42;83.32;102016.66;5271302;28;20030;-69
2023/06/04 08:40:31;;;;;;;5.00;1.90;;;;;;;18.63;83.50;102004.88;5270514;28;20429;-69
2023/06/04 08:43:04;;;;;;;5.97;1.80;;;;;;;18.71;79.70;102007.72;5270472;28;20032;-69
2023/06/04 08:45:42;;;;;;;3.33;1.50;;;;;;;18.91;82.25;102009.44;5265532;28;20099;-69
2023/06/04 08:48:14;;;;;;;4.20;1.40;;;;;;;18.96;76.14;102017.13;5267553;28;20354;-69
2023/06/04 08:50:47;;;;;;;3.92;1.30;;;;;;;19.09;75.86;102014.13;5275434;28;20075;-69
2023/06/04 08:53:19;;;;;;;4.28;1.50;;;;;;;19.22;77.14;102016.53;5272467;28;20399;-69
2023/06/04 08:55:53;;;;;;;3.60;1.67;;;;;;;19.27;80.58;102020.50;5267815;28;20047;-69
2023/06/04 08:58:25;;;;;;;3.55;1.60;;;;;;;19.26;67.38;102024.22;5271981;28;20032;-69
2023/06/04 09:00:57;;;;;;;3.08;1.20;;;;;;;19.32;72.20;102020.91;5268862;28;20032;-69
2023/06/04 09:03:32;;;;;;;3.40;1.63;;;;;;;19.60;73.40;102029.09;5271962;28;20574;-69
2023/06/04 09:06:05;;;;;;;3.70;1.65;;;;;;;19.59;68.90;102022.81;5268438;28;20036;-69
2023/06/04 09:08:40;;;;;;;3.03;1.60;;;;;;;19.66;67.89;102022.25;5266092;28;20033;-69
2023/06/04 09:11:14;;;;;;;2.55;1.10;;;;;;;19.90;66.47;102024.44;5267775;28;20119;-69
2023/06/04 09:13:47;;;;;;;3.65;1.25;;;;;;;19.85;64.69;102024.03;5264604;28;20075;-69
2023/06/04 09:16:19;;;;;;;2.70;1.10;;;;;;;19.86;68.71;102020.34;5272077;28;20028;-69
2023/06/04 09:18:50;;;;;;;2.67;0.98;;;;;;;19.98;62.28;102025.41;5272119;28;20032;-68
2023/06/04 09:21:22;;;;;;;3.22;1.10;;;;;;;20.07;66.65;102022.78;5269439;28;20467;-69
2023/06/04 09:23:54;;;;;;;3.08;0.93;;;;;;;20.13;62.18;102028.44;5272336;28;20127;-69
2023/06/04 09:26:25;;;;;;;3.90;1.10;;;;;;;20.14;62.99;102026.63;5280897;28;20026;-68
2023/06/04 09:28:59;;;;;;;4.90;1.27;;;;;;;20.22;66.10;102025.84;5267101;28;20032;-68
2023/06/04 09:31:36;;;;;;;3.15;1.25;;;;;;;20.33;64.86;102031.91;5270001;28;20017;-67
2023/06/04 09:34:08;;;;;;;2.60;1.10;;;;;;;20.34;62.28;102027.34;5273081;28;20031;-69
2023/06/04 09:36:39;;;;;;;2.50;0.90;;;;;;;20.43;59.06;102031.00;5271669;28;20032;-69
2023/06/04 09:39:17;;;;;;;3.80;0.90;;;;;;;20.56;59.83;102020.63;5274547;28;20036;-68
2023/06/04 09:42:01;;;;;;;3.05;1.17;;;;;;;20.52;62.50;102024.66;5269848;28;20043;-70
2023/06/04 09:44:43;;;;;;;2.33;0.85;;;;;;;20.48;64.60;102026.81;5262877;28;20032;-69
2023/06/04 09:47:18;;;;;;;2.35;0.80;;;;;;;20.54;60.14;102026.19;5269766;28;20044;-69
2023/06/04 09:49:50;;;;;;;3.88;1.10;;;;;;;20.60;57.51;102013.06;5267269;28;20107;-69
2023/06/04 09:52:32;;;;;;;3.25;1.20;;;;;;;20.74;57.00;102026.06;5268739;28;20036;-69
2023/06/04 09:55:04;;;;;;;2.80;1.13;;;;;;;20.73;57.61;102019.81;5267608;28;20035;-69
2023/06/04 09:57:38;;;;;;;3.55;1.10;;;;;;;20.79;54.49;102023.75;5267714;28;20495;-69
2023/06/04 10:00:12;;;;;;;2.80;0.93;;;;;;;20.80;56.16;102020.03;5263716;28;20368;-69
2023/06/04 10:02:45;;;;;;;3.90;1.00;;;;;;;21.01;62.53;102010.69;5270239;28;20044;-69
2023/06/04 10:05:21;;;;;;;4.47;0.98;;;;;;;21.04;56.92;102011.25;5264592;28;20048;-70
2023/06/04 10:07:56;;;;;;;3.83;0.80;;;;;;;21.04;61.92;102013.13;5267887;28;20043;-69
2023/06/04 10:10:28;;;;;;;4.45;1.00;;;;;;;21.16;58.00;102014.56;5267386;28;20036;-69
2023/06/04 10:13:20;;;;;;;2.65;0.93;;;;;;;21.13;58.34;102012.13;5265513;28;20359;-69
2023/06/04 10:15:52;;;;;;;2.45;0.82;;;;;;;21.13;57.95;102018.44;5268318;28;20045;-68
2023/06/04 10:18:25;;;;;;;1.90;0.88;;;;;;;21.32;66.09;102011.09;5266504;28;20124;-69
2023/06/04 10:20:56;;;;;;;3.17;1.00;;;;;;;21.21;56.01;102020.38;5271782;28;20028;-70
2023/06/04 10:23:29;;;;;;;2.47;0.70;;;;;;;21.29;54.01;102014.13;5273530;28;20077;-70
2023/06/04 10:26:01;;;;;;;3.97;1.00;;;;;;;21.37;56.09;102016.06;5273895;28;20028;-69
2023/06/04 10:28:33;;;;;;;3.60;0.80;;;;;;;21.46;56.13;102017.84;5277802;28;20040;-69
2023/06/04 10:31:05;;;;;;;2.20;0.70;;;;;;;21.43;58.93;102010.81;5271563;28;20035;-69
2023/06/04 10:33:37;;;;;;;2.33;0.90;;;;;;;21.58;56.68;102011.13;5277721;28;20044;-70
2023/06/04 10:36:19;;;;;;;3.15;0.90;;;;;;;21.63;55.87;102006.06;5272144;28;20032;-69
2023/06/04 10:38:55;;;;;;;5.07;0.90;;;;;;;21.57;62.10;102008.56;5275802;28;20022;-69
2023/06/04 10:41:26;;;;;;;3.70;0.80;;;;;;;21.58;56.33;102002.13;5275838;28;20032;-69
2023/06/04 10:44:01;;;;;;;1.98;0.82;;;;;;;21.69;51.27;102010.00;5274814;28;20592;-70
2023/06/04 10:46:42;;;;;;;2.58;0.77;;;;;;;21.80;58.06;102003.41;5274891;28;20120;-70
2023/06/04 10:49:14;;;;;;;3.38;1.00;;;;;;;21.71;56.53;102003.38;5272977;28;20025;-70
2023/06/04 10:51:46;;;;;;;3.08;0.85;;;;;;;21.76;59.05;102005.59;5266582;28;20036;-70
2023/06/04 10:54:25;;;;;;;2.72;0.77;;;;;;;21.84;58.80;102005.66;5270882;28;20029;-70
2023/06/04 10:56:56;;;;;;;6.10;1.70;;;;;;;21.79;58.79;102007.16;5270174;28;20433;-69
2023/06/04 10:59:28;;;;;;;3.38;1.08;;;;;;;21.84;51.31;102008.38;5268626;28;20024;-69
2023/06/04 11:02:06;;;;;;;2.45;0.98;;;;;;;22.00;53.19;102013.00;5276079;28;20024;-70
2023/06/04 11:04:38;;;;;;;3.33;1.00;;;;;;;22.03;50.16;102001.78;5276525;28;20024;-69
2023/06/04 11:07:09;;;;;;;3.30;1.05;;;;;;;22.06;53.24;102003.34;5272028;28;20055;-70
2023/06/04 11:09:48;;;;;;;3.55;0.98;;;;;;;22.03;52.75;102003.66;5272198;28;20042;-70
2023/06/04 11:12:20;;;;;;;2.80;0.77;;;;;;;22.09;53.81;101998.44;5277842;28;20103;-69
2023/06/04 11:14:55;;;;;;;3.78;0.90;;;;;;;22.08;55.82;102004.03;5272161;28;20612;-70
2023/06/04 11:17:27;;;;;;;1.73;0.70;;;;;;;22.05;52.92;102007.94;5275114;28;20050;-70
2023/06/04 11:20:00;;;;;;;2.35;0.80;;;;;;;22.12;49.52;101994.53;5270092;28;20024;-69
2023/06/04 11:22:31;;;;;;;2.00;0.90;;;;;;;22.16;54.50;101976.03;5271110;28;20120;-70
2023/06/04 11:25:03;;;;;;;3.03;1.00;;;;;;;22.20;51.29;102002.69;5274401;28;20036;-70
2023/06/04 11:27:34;;;;;;;4.05;1.00;;;;;;;22.25;54.33;101994.94;5276376;28;20104;-69
2023/06/04 11:30:11;;;;;;;2.47;0.80;;;;;;;22.30;50.89;101997.13;5274852;28;20418;-69
2023/06/04 11:32:43;;;;;;;2.85;0.82;;;;;;;22.28;45.98;101980.13;5274288;28;20024;-70
2023/06/04 11:35:14;;;;;;;2.58;0.95;;;;;;;22.35;48.86;101983.06;5277213;28;20442;-69
2023/06/04 11:37:57;;;;;;;2.60;0.65;;;;;;;22.43;51.47;101983.06;5275561;28;20500;-70
2023/06/04 11:40:28;;;;;;;2.85;1.10;;;;;;;22.51;45.04;101977.63;5265499;28;20036;-69
2023/06/04 11:42:59;;;;;;;2.28;1.00;;;;;;;22.46;44.90;101980.03;5272972;28;20020;-69